createdAt,value
2022-12-01T00:01:08.420Z,97466.69
2022-12-01T00:03:35.365Z,97459.19
2022-12-01T00:06:07.177Z,97459.19
2022-12-01T00:08:34.377Z,97464.81
2022-12-01T00:11:05.843Z,97460.63
2022-12-01T00:13:33.002Z,97465.38
2022-12-01T00:16:13.167Z,97463.38
2022-12-01T00:18:39.987Z,97461.34
2022-12-01T00:21:07.041Z,97470.84
2022-12-01T00:23:33.753Z,97468.84
2022-12-01T00:26:06.471Z,97461.34
2022-12-01T00:28:33.229Z,97464.25
2022-12-01T00:31:00.240Z,97473.19
2022-12-01T00:33:27.009Z,97462.78
2022-12-01T00:36:00.113Z,97473.00
2022-12-01T00:38:27.266Z,97465.53
2022-12-01T00:40:53.965Z,97464.81
2022-12-01T00:43:21.057Z,97464.81
2022-12-01T00:45:48.004Z,97467.53
2022-12-01T00:48:14.794Z,97464.81
2022-12-01T00:50:41.466Z,97462.78
2022-12-01T00:53:08.249Z,97462.78
2022-12-01T00:55:35.522Z,97470.28
2022-12-01T00:58:02.363Z,97472.28
2022-12-01T01:00:29.104Z,97465.97
2022-12-01T01:02:55.894Z,97463.94
2022-12-01T01:05:22.985Z,97473.59
2022-12-01T01:07:49.829Z,97473.59
2022-12-01T01:10:16.546Z,97480.34
2022-12-01T01:12:43.276Z,97476.91
2022-12-01T01:15:10.393Z,97482.94
2022-12-01T01:17:37.105Z,97484.38
2022-12-01T01:20:04.405Z,97477.47
2022-12-01T01:22:31.179Z,97482.94
2022-12-01T01:24:57.840Z,97484.94
2022-12-01T01:27:24.569Z,97480.75
2022-12-01T01:29:51.295Z,97486.09
2022-12-01T01:32:18.146Z,97489.38
2022-12-01T01:34:45.613Z,97483.19
2022-12-01T01:37:12.429Z,97490.81
2022-12-01T01:39:39.062Z,97491.56
2022-12-01T01:42:05.797Z,97489.22
2022-12-01T01:44:50.837Z,97488.34
2022-12-01T01:47:36.499Z,97493.81
2022-12-01T01:50:09.302Z,97489.34
2022-12-01T01:52:39.096Z,97496.97
2022-12-01T01:55:06.242Z,97497.09
2022-12-01T01:57:34.423Z,97485.44
2022-12-01T02:00:11.687Z,97488.19
2022-12-01T02:02:45.085Z,97494.38
2022-12-01T02:05:20.602Z,97492.78
2022-12-01T02:07:48.426Z,97492.06
2022-12-01T02:10:22.347Z,97494.63
2022-12-01T02:13:02.743Z,97489.16
2022-12-01T02:16:03.510Z,97491.34
2022-12-01T02:18:39.866Z,97500.81
2022-12-01T02:21:31.455Z,97492.47
2022-12-01T02:24:11.770Z,97498.34
2022-12-01T02:26:49.685Z,97497.47
2022-12-01T02:29:47.074Z,97503.50
2022-12-01T02:32:38.748Z,97504.63
2022-12-01T02:35:14.342Z,97503.19
2022-12-01T02:37:48.513Z,97501.75
2022-12-01T02:40:23.990Z,97497.72
2022-12-01T02:43:03.654Z,97497.56
2022-12-01T02:46:00.822Z,97498.31
2022-12-01T02:48:30.209Z,97499.56
2022-12-01T02:51:00.229Z,97495.81
2022-12-01T02:53:27.124Z,97495.97
2022-12-01T02:55:56.083Z,97490.19
2022-12-01T02:58:22.825Z,97486.16
2022-12-01T03:01:18.177Z,97483.28
2022-12-01T03:03:58.540Z,97491.88
2022-12-01T03:06:45.124Z,97487.97
2022-12-01T03:09:14.816Z,97484.44
2022-12-01T03:11:56.943Z,97493.34
2022-12-01T03:14:40.805Z,97492.88
2022-12-01T03:17:15.256Z,97485.03
2022-12-01T03:19:49.889Z,97483.78
2022-12-01T03:22:16.795Z,97482.34
2022-12-01T03:24:46.875Z,97492.47
2022-12-01T03:27:15.325Z,97489.34
2022-12-01T03:29:47.019Z,97481.97
2022-12-01T03:32:20.037Z,97479.63
2022-12-01T03:35:08.911Z,97482.69
2022-12-01T03:37:45.689Z,97482.50
2022-12-01T03:40:18.143Z,97479.88
2022-12-01T03:42:48.320Z,97481.53
2022-12-01T03:45:18.486Z,97480.59
2022-12-01T03:47:45.427Z,97481.78
2022-12-01T03:50:14.194Z,97485.56
2022-12-01T03:52:53.154Z,97477.53
2022-12-01T03:55:22.985Z,97483.00
2022-12-01T03:58:06.598Z,97481.00
2022-12-01T04:00:33.596Z,97484.28
2022-12-01T04:03:04.888Z,97479.63
2022-12-01T04:05:33.512Z,97482.03
2022-12-01T04:08:00.762Z,97485.31
2022-12-01T04:10:27.646Z,97487.72
2022-12-01T04:12:59.202Z,97485.22
2022-12-01T04:15:26.922Z,97489.00
2022-12-01T04:17:53.600Z,97488.28
2022-12-01T04:20:20.623Z,97489.88
2022-12-01T04:22:47.787Z,97488.06
2022-12-01T04:25:14.498Z,97497.84
2022-12-01T04:27:41.211Z,97490.56
2022-12-01T04:30:08.459Z,97492.00
2022-12-01T04:32:42.837Z,97489.25
2022-12-01T04:35:16.593Z,97490.56
2022-12-01T04:37:44.738Z,97496.00
2022-12-01T04:40:11.922Z,97484.38
2022-12-01T04:42:38.671Z,97492.00
2022-12-01T04:45:06.095Z,97486.38
2022-12-01T04:47:32.833Z,97488.38
2022-12-01T04:50:00.545Z,97489.81
2022-12-01T04:52:32.042Z,97496.00
2022-12-01T04:55:01.794Z,97492.00
2022-12-01T04:57:28.522Z,97494.72
2022-12-01T04:59:55.278Z,97497.31
2022-12-01T05:02:22.058Z,97500.03
2022-12-01T05:04:48.918Z,97491.28
2022-12-01T05:07:15.675Z,97492.72
2022-12-01T05:09:42.552Z,97504.75
2022-12-01T05:12:10.118Z,97503.72
2022-12-01T05:14:36.867Z,97509.00
2022-12-01T05:17:03.631Z,97511.72
2022-12-01T05:19:48.960Z,97515.16
2022-12-01T05:22:15.848Z,97514.44
2022-12-01T05:24:42.598Z,97507.56
2022-12-01T05:27:09.213Z,97505.97
2022-12-01T05:29:35.992Z,97505.78
2022-12-01T05:32:03.723Z,97509.06
2022-12-01T05:34:30.688Z,97515.97
2022-12-01T05:36:57.381Z,97507.78
2022-12-01T05:39:24.107Z,97517.97
2022-12-01T05:41:50.749Z,97507.78
2022-12-01T05:44:17.511Z,97513.97
2022-12-01T05:46:44.172Z,97506.34
2022-12-01T05:49:10.964Z,97512.38
2022-12-01T05:51:37.754Z,97509.47
2022-12-01T05:54:04.585Z,97505.28
2022-12-01T05:56:31.319Z,97512.19
2022-12-01T05:58:58.069Z,97511.31
2022-12-01T06:01:24.881Z,97508.59
2022-12-01T06:03:53.252Z,97510.59
2022-12-01T06:06:20.341Z,97514.44
2022-12-01T06:08:47.497Z,97515.88
2022-12-01T06:11:14.401Z,97507.69
2022-12-01T06:13:41.487Z,97514.59
2022-12-01T06:16:08.957Z,97517.31
2022-12-01T06:18:39.028Z,97511.13
2022-12-01T06:21:07.065Z,97507.16
2022-12-01T06:23:35.159Z,97508.97
2022-12-01T06:26:02.818Z,97509.53
2022-12-01T06:28:29.790Z,97511.38
2022-12-01T06:31:01.276Z,97516.81
2022-12-01T06:33:29.773Z,97515.56
2022-12-01T06:36:05.050Z,97520.84
2022-12-01T06:38:34.297Z,97524.28
2022-12-01T06:41:01.335Z,97530.47
2022-12-01T06:43:28.392Z,97530.88
2022-12-01T06:46:01.193Z,97526.38
2022-12-01T06:48:42.731Z,97523.56
2022-12-01T06:51:11.005Z,97533.16
2022-12-01T06:53:38.657Z,97528.84
2022-12-01T06:56:06.678Z,97530.50
2022-12-01T06:58:34.794Z,97538.84
2022-12-01T07:01:09.255Z,97531.59
2022-12-01T07:03:36.093Z,97531.41
2022-12-01T07:06:04.452Z,97526.34
2022-12-01T07:08:32.800Z,97525.03
2022-12-01T07:11:01.359Z,97527.94
2022-12-01T07:13:33.385Z,97525.56
2022-12-01T07:16:04.624Z,97533.91
2022-12-01T07:18:32.186Z,97532.06
2022-12-01T07:21:07.325Z,97538.41
2022-12-01T07:23:34.766Z,97537.50
2022-12-01T07:26:03.619Z,97534.94
2022-12-01T07:28:30.621Z,97540.34
2022-12-01T07:31:13.902Z,97533.66
2022-12-01T07:33:40.837Z,97537.97
2022-12-01T07:36:08.471Z,97543.41
2022-12-01T07:38:44.452Z,97541.78
2022-12-01T07:41:21.885Z,97549.72
2022-12-01T07:43:50.935Z,97550.28
2022-12-01T07:46:23.228Z,97544.41
2022-12-01T07:48:51.958Z,97552.34
2022-12-01T07:51:19.195Z,97555.94
2022-12-01T07:53:48.155Z,97561.34
2022-12-01T07:56:16.078Z,97546.34
2022-12-01T07:58:43.289Z,97548.28
2022-12-01T08:01:12.163Z,97557.28
2022-12-01T08:03:39.695Z,97563.81
2022-12-01T08:06:07.756Z,97560.00
2022-12-01T08:08:36.585Z,97563.13
2022-12-01T08:11:08.406Z,97564.06
2022-12-01T08:13:35.494Z,97560.28
2022-12-01T08:16:06.552Z,97564.97
2022-12-01T08:18:38.214Z,97562.63
2022-12-01T08:21:06.458Z,97563.53
2022-12-01T08:23:33.473Z,97572.94
2022-12-01T08:26:04.693Z,97568.41
2022-12-01T08:28:31.543Z,97564.66
2022-12-01T08:30:58.683Z,97569.72
2022-12-01T08:33:26.110Z,97570.78
2022-12-01T08:35:53.042Z,97571.03
2022-12-01T08:38:20.179Z,97573.09
2022-12-01T08:40:48.001Z,97573.31
2022-12-01T08:43:34.768Z,97574.41
2022-12-01T08:46:02.781Z,97581.50
2022-12-01T08:48:30.204Z,97585.63
2022-12-01T08:51:18.529Z,97588.38
2022-12-01T08:53:47.797Z,97583.00
2022-12-01T08:56:29.355Z,97593.50
2022-12-01T08:58:56.181Z,97592.97
2022-12-01T09:01:23.199Z,97592.78
2022-12-01T09:04:05.716Z,97593.47
2022-12-01T09:06:43.878Z,97583.75
2022-12-01T09:09:24.780Z,97593.03
2022-12-01T09:11:52.481Z,97587.16
2022-12-01T09:14:20.341Z,97598.63
2022-12-01T09:16:50.180Z,97599.25
2022-12-01T09:19:23.951Z,97592.75
2022-12-01T09:21:51.634Z,97596.88
2022-12-01T09:24:18.785Z,97601.19
2022-12-01T09:26:46.025Z,97598.81
2022-12-01T09:29:15.307Z,97598.94
2022-12-01T09:31:43.169Z,97595.44
2022-12-01T09:34:18.057Z,97593.88
2022-12-01T09:36:46.112Z,97602.06
2022-12-01T09:39:15.595Z,97598.56
2022-12-01T09:42:08.416Z,97598.97
2022-12-01T09:44:52.035Z,97606.41
2022-12-01T09:47:26.608Z,97599.50
2022-12-01T09:49:58.901Z,97600.63
2022-12-01T09:52:28.345Z,97598.28
2022-12-01T09:54:58.509Z,97607.75
2022-12-01T09:57:28.314Z,97600.13
2022-12-01T09:59:56.161Z,97593.34
2022-12-01T10:02:33.922Z,97593.50
2022-12-01T10:05:06.618Z,97587.06
2022-12-01T10:07:38.928Z,97593.31
2022-12-01T10:10:16.323Z,97582.53
2022-12-01T10:12:46.327Z,97588.00
2022-12-01T10:15:23.334Z,97585.88
2022-12-01T10:18:03.455Z,97571.19
2022-12-01T10:20:47.877Z,97580.28
2022-12-01T10:23:34.003Z,97568.63
2022-12-01T10:26:16.134Z,97565.72
2022-12-01T10:29:16.913Z,97570.03
2022-12-01T10:31:58.692Z,97562.06
2022-12-01T10:34:39.654Z,97564.50
2022-12-01T10:37:16.522Z,97576.28
2022-12-01T10:39:45.030Z,97567.44
2022-12-01T10:42:27.132Z,97570.91
2022-12-01T10:44:55.781Z,97566.78
2022-12-01T10:47:25.779Z,97562.00
2022-12-01T10:49:53.297Z,97564.88
2022-12-01T10:52:34.118Z,97564.16
2022-12-01T10:55:02.206Z,97552.03
2022-12-01T10:57:30.915Z,97549.53
2022-12-01T11:00:00.482Z,97556.75
2022-12-01T11:02:29.920Z,97558.81
2022-12-01T11:05:19.556Z,97549.88
2022-12-01T11:07:47.863Z,97538.56
2022-12-01T11:10:25.284Z,97529.69
2022-12-01T11:13:34.080Z,97536.44
2022-12-01T11:16:04.620Z,97527.06
2022-12-01T11:18:33.493Z,97523.25
2022-12-01T11:21:16.900Z,97522.34
2022-12-01T11:23:52.572Z,97530.09
2022-12-01T11:26:33.180Z,97529.19
2022-12-01T11:29:36.987Z,97525.38
2022-12-01T11:32:20.400Z,97522.38
2022-12-01T11:38:27.680Z,97526.31
2022-12-01T11:41:01.875Z,97522.88
2022-12-01T11:43:36.709Z,97523.19
2022-12-01T11:46:06.017Z,97525.38
2022-12-01T11:48:35.612Z,97522.56
2022-12-01T11:51:08.030Z,97518.50
2022-12-01T11:53:38.808Z,97520.88
2022-12-01T11:56:28.939Z,97517.09
2022-12-01T11:59:03.793Z,97521.44
2022-12-01T12:01:58.776Z,97523.59
2022-12-01T12:04:43.981Z,97516.75
2022-12-01T12:07:20.435Z,97522.34
2022-12-01T12:09:54.414Z,97521.28
2022-12-01T12:12:37.681Z,97523.28
2022-12-01T12:15:59.129Z,97520.81
2022-12-01T12:18:36.807Z,97523.97
2022-12-01T12:21:16.008Z,97521.81
2022-12-01T12:23:59.505Z,97529.94
2022-12-01T12:26:53.195Z,97522.25
2022-12-01T12:29:29.575Z,97528.97
2022-12-01T12:32:15.030Z,97527.91
2022-12-01T12:34:49.259Z,97523.00
2022-12-01T12:37:54.733Z,97524.31
2022-12-01T12:40:38.156Z,97523.41
2022-12-01T12:43:29.551Z,97516.78
2022-12-01T12:46:14.212Z,97519.13
2022-12-01T12:49:04.003Z,97518.94
2022-12-01T12:51:46.662Z,97511.47
2022-12-01T12:54:43.547Z,97509.31
2022-12-01T12:57:41.229Z,97510.72
2022-12-01T13:00:14.315Z,97508.91
2022-12-01T13:02:43.142Z,97511.25
2022-12-01T13:05:10.733Z,97521.59
2022-12-01T13:07:43.281Z,97512.50
2022-12-01T13:10:35.449Z,97512.09
2022-12-01T13:13:21.085Z,97519.13
2022-12-01T13:15:56.008Z,97522.88
2022-12-01T13:18:26.053Z,97515.13
2022-12-01T13:20:54.880Z,97516.81
2022-12-01T13:23:22.951Z,97516.25
2022-12-01T13:25:53.433Z,97516.84
2022-12-01T13:28:23.631Z,97523.09
2022-12-01T13:31:05.267Z,97509.13
2022-12-01T13:33:33.403Z,97517.34
2022-12-01T13:36:45.161Z,97505.25
2022-12-01T13:39:19.537Z,97501.81
2022-12-01T13:41:47.378Z,97510.34
2022-12-01T13:44:20.202Z,97503.66
2022-12-01T13:46:50.308Z,97494.06
2022-12-01T13:49:51.104Z,97495.03
2022-12-01T13:52:22.120Z,97502.69
2022-12-01T13:55:07.730Z,97501.66
2022-12-01T13:58:16.101Z,97496.75
2022-12-01T14:00:43.924Z,97496.69
2022-12-01T14:03:20.734Z,97501.25
2022-12-01T14:05:57.952Z,97496.06
2022-12-01T14:08:30.433Z,97494.75
2022-12-01T14:11:08.475Z,97499.94
2022-12-01T14:13:58.065Z,97494.56
2022-12-01T14:16:25.406Z,97496.97
2022-12-01T14:19:01.444Z,97493.09
2022-12-01T14:21:47.389Z,97498.59
2022-12-01T14:24:23.953Z,97498.06
2022-12-01T14:26:51.737Z,97495.91
2022-12-01T14:29:27.907Z,97498.75
2022-12-01T14:31:54.901Z,97499.47
2022-12-01T14:34:24.650Z,97498.22
2022-12-01T14:36:59.599Z,97504.22
2022-12-01T14:39:32.420Z,97504.81
2022-12-01T14:42:03.710Z,97497.44
2022-12-01T14:44:38.515Z,97497.44
2022-12-01T14:47:09.779Z,97493.09
2022-12-01T14:50:12.541Z,97495.84
2022-12-01T14:52:42.560Z,97503.81
2022-12-01T14:55:28.125Z,97494.94
2022-12-01T14:58:05.277Z,97504.00
2022-12-01T15:00:35.672Z,97500.75
2022-12-01T15:03:07.729Z,97500.56
2022-12-01T15:05:40.365Z,97502.75
2022-12-01T15:08:43.442Z,97492.44
2022-12-01T15:11:30.281Z,97495.53
2022-12-01T15:13:57.728Z,97496.03
2022-12-01T15:16:27.128Z,97491.88
2022-12-01T15:18:54.464Z,97488.44
2022-12-01T15:21:30.029Z,97491.72
2022-12-01T15:24:00.936Z,97496.22
2022-12-01T15:26:31.377Z,97496.22
2022-12-01T15:29:05.629Z,97490.78
2022-12-01T15:31:32.880Z,97492.22
2022-12-01T15:33:59.772Z,97484.44
2022-12-01T15:36:26.690Z,97488.06
2022-12-01T15:38:53.732Z,97488.81
2022-12-01T15:41:30.220Z,97490.25
2022-12-01T15:43:59.360Z,97491.88
2022-12-01T15:46:34.606Z,97485.19
2022-12-01T15:49:19.232Z,97492.81
2022-12-01T15:51:50.073Z,97487.16
2022-12-01T15:54:21.319Z,97496.19
2022-12-01T15:56:54.395Z,97498.00
2022-12-01T15:59:42.451Z,97497.09
2022-12-01T16:02:21.492Z,97506.88
2022-12-01T16:04:49.662Z,97499.25
2022-12-01T16:07:16.607Z,97493.44
2022-12-01T16:09:56.198Z,97504.84
2022-12-01T16:12:25.582Z,97505.91
2022-12-01T16:15:01.452Z,97507.53
2022-12-01T16:17:41.142Z,97502.28
2022-12-01T16:20:23.145Z,97499.91
2022-12-01T16:22:58.819Z,97494.06
2022-12-01T16:25:42.142Z,97495.69
2022-12-01T16:28:33.021Z,97496.78
2022-12-01T16:30:59.759Z,97495.63
2022-12-01T16:33:28.091Z,97490.56
2022-12-01T16:35:55.909Z,97498.00
2022-12-01T16:38:25.310Z,97493.28
2022-12-01T16:40:55.103Z,97500.91
2022-12-01T16:43:24.185Z,97500.38
2022-12-01T16:45:58.608Z,97496.88
2022-12-01T16:48:25.537Z,97500.91
2022-12-01T16:50:54.085Z,97505.06
2022-12-01T16:53:20.952Z,97508.13
2022-12-01T16:55:51.310Z,97498.88
2022-12-01T16:58:18.528Z,97509.38
2022-12-01T17:00:45.513Z,97507.41
2022-12-01T17:03:14.518Z,97511.38
2022-12-01T17:05:41.414Z,97510.16
2022-12-01T17:08:08.233Z,97503.09
2022-12-01T17:10:35.366Z,97508.69
2022-12-01T17:13:02.191Z,97517.03
2022-12-01T17:15:30.883Z,97508.50
2022-12-01T17:17:57.698Z,97509.22
2022-12-01T17:20:25.829Z,97507.41
2022-12-01T17:22:52.743Z,97509.72
2022-12-01T17:25:19.415Z,97508.44
2022-12-01T17:27:46.446Z,97502.28
2022-12-01T17:30:13.598Z,97504.84
2022-12-01T17:32:40.338Z,97507.03
2022-12-01T17:35:07.767Z,97515.38
2022-12-01T17:37:36.931Z,97508.84
2022-12-01T17:40:05.975Z,97516.63
2022-12-01T17:42:33.963Z,97518.09
2022-12-01T17:45:00.892Z,97519.56
2022-12-01T17:47:28.042Z,97527.56
2022-12-01T17:49:54.993Z,97524.13
2022-12-01T17:52:26.723Z,97519.38
2022-12-01T17:54:56.475Z,97516.31
2022-12-01T17:57:23.247Z,97523.94
2022-12-01T17:59:50.190Z,97532.13
2022-12-01T18:02:17.028Z,97519.75
2022-12-01T18:04:44.170Z,97519.22
2022-12-01T18:07:11.799Z,97522.88
2022-12-01T18:09:40.679Z,97521.81
2022-12-01T18:12:07.465Z,97523.09
2022-12-01T18:14:34.693Z,97520.34
2022-12-01T18:17:01.502Z,97521.25
2022-12-01T18:19:28.498Z,97525.81
2022-12-01T18:21:55.257Z,97527.25
2022-12-01T18:24:21.990Z,97525.03
2022-12-01T18:26:49.029Z,97527.41
2022-12-01T18:29:24.012Z,97524.47
2022-12-01T18:31:50.848Z,97531.94
2022-12-01T18:34:17.690Z,97526.50
2022-12-01T18:36:45.127Z,97524.47
2022-12-01T18:39:12.144Z,97527.41
2022-12-01T18:41:39.580Z,97527.41
2022-12-01T18:44:06.822Z,97528.13
2022-12-01T18:46:34.134Z,97532.13
2022-12-01T18:49:03.007Z,97530.66
2022-12-01T18:51:31.655Z,97538.66
2022-12-01T18:54:00.777Z,97531.97
2022-12-01T18:56:28.397Z,97539.06
2022-12-01T18:58:59.548Z,97531.78
2022-12-01T19:01:37.884Z,97531.41
2022-12-01T19:04:06.258Z,97526.50
2022-12-01T19:06:35.230Z,97526.13
2022-12-01T19:09:04.595Z,97520.84
2022-12-01T19:11:31.964Z,97523.75
2022-12-01T19:13:58.971Z,97517.19
2022-12-01T19:16:26.131Z,97515.56
2022-12-01T19:18:53.160Z,97508.13
2022-12-01T19:21:20.542Z,97516.44
2022-12-01T19:23:48.493Z,97512.63
2022-12-01T19:26:17.482Z,97504.63
2022-12-01T19:28:45.829Z,97508.06
2022-12-01T19:31:19.369Z,97502.81
2022-12-01T19:33:47.155Z,97507.69
2022-12-01T19:36:17.074Z,97508.41
2022-12-01T19:41:31.002Z,97508.03
2022-12-01T19:43:58.245Z,97501.84
2022-12-01T19:46:27.527Z,97508.03
2022-12-01T19:49:03.027Z,97508.03
2022-12-01T19:51:35.417Z,97506.75
2022-12-01T19:54:07.024Z,97506.03
2022-12-01T19:56:34.674Z,97499.13
2022-12-01T19:59:02.013Z,97500.59
2022-12-01T20:01:29.376Z,97510.22
2022-12-01T20:03:56.162Z,97501.47
2022-12-01T20:06:25.894Z,97494.72
2022-12-01T20:08:55.189Z,97495.47
2022-12-01T20:11:23.275Z,97498.19
2022-12-01T20:13:53.847Z,97498.03
2022-12-01T20:16:25.830Z,97498.03
2022-12-01T20:18:55.929Z,97496.59
2022-12-01T20:21:26.317Z,97494.41
2022-12-01T20:24:10.376Z,97495.13
2022-12-01T20:26:48.426Z,97496.22
2022-12-01T20:29:18.482Z,97497.69
2022-12-01T20:31:46.152Z,97502.41
2022-12-01T20:34:16.107Z,97501.91
2022-12-01T20:36:43.498Z,97501.75
2022-12-01T20:39:11.495Z,97507.72
2022-12-01T20:41:39.417Z,97503.75
2022-12-01T20:44:07.845Z,97504.88
2022-12-01T20:46:36.170Z,97494.72
2022-12-01T20:49:04.894Z,97499.59
2022-12-01T20:51:33.471Z,97503.03
2022-12-01T20:54:26.667Z,97498.16
2022-12-01T20:56:48.482Z,97503.03
2022-12-01T20:59:15.132Z,97498.16
2022-12-01T21:01:41.977Z,97500.47
2022-12-01T21:04:08.797Z,97503.19
2022-12-01T21:06:35.549Z,97498.91
2022-12-01T21:09:04.196Z,97501.66
2022-12-01T21:11:54.014Z,97502.53
2022-12-01T21:14:48.737Z,97498.91
2022-12-01T21:17:26.070Z,97500.38
2022-12-01T21:20:32.810Z,97496.16
2022-12-01T21:23:10.552Z,97495.81
2022-12-01T21:26:28.479Z,97497.59
2022-12-01T21:28:59.337Z,97498.16
2022-12-01T21:31:26.496Z,97501.03
2022-12-01T21:33:53.923Z,97493.78
2022-12-01T21:36:22.605Z,97491.78
2022-12-01T21:38:58.963Z,97494.66
2022-12-01T21:41:29.375Z,97491.94
2022-12-01T21:44:01.455Z,97495.38
2022-12-01T21:46:28.468Z,97501.03
2022-12-01T21:48:55.359Z,97494.31
2022-12-01T21:51:23.629Z,97500.66
2022-12-01T21:53:52.493Z,97494.31
2022-12-01T21:56:25.405Z,97496.34
2022-12-01T21:58:52.936Z,97501.47
2022-12-01T22:01:30.691Z,97495.84
2022-12-01T22:04:02.410Z,97495.50
2022-12-01T22:06:40.400Z,97497.31
2022-12-01T22:09:13.217Z,97495.13
2022-12-01T22:11:42.696Z,97496.41
2022-12-01T22:14:19.082Z,97498.38
2022-12-01T22:16:54.562Z,97500.19
2022-12-01T22:19:25.045Z,97493.63
2022-12-01T22:21:57.770Z,97488.69
2022-12-01T22:24:26.686Z,97489.03
2022-12-01T22:27:05.362Z,97483.19
2022-12-01T22:29:39.597Z,97482.66
2022-12-01T22:32:12.182Z,97486.28
2022-12-01T22:34:40.065Z,97478.81
2022-12-01T22:37:36.890Z,97475.00
2022-12-01T22:40:42.069Z,97480.44
2022-12-01T22:43:17.728Z,97481.88
2022-12-01T22:45:49.640Z,97480.59
2022-12-01T22:48:42.325Z,97479.88
2022-12-01T22:51:28.989Z,97480.59
2022-12-01T22:54:01.781Z,97476.44
2022-12-01T22:56:35.877Z,97471.16
2022-12-01T22:59:22.124Z,97471.88
2022-12-01T23:01:57.435Z,97473.88
2022-12-01T23:04:33.474Z,97477.50
2022-12-01T23:07:09.772Z,97476.22
2022-12-01T23:09:45.589Z,97469.13
2022-12-01T23:12:12.326Z,97465.69
2022-12-01T23:14:42.573Z,97467.53
2022-12-01T23:17:17.354Z,97466.81
2022-12-01T23:19:44.190Z,97464.09
2022-12-01T23:22:11.311Z,97462.31
2022-12-01T23:24:39.392Z,97466.31
2022-12-01T23:27:06.784Z,97462.69
2022-12-01T23:29:34.404Z,97467.63
2022-12-01T23:32:01.395Z,97464.75
2022-12-01T23:34:28.261Z,97466.91
2022-12-01T23:36:55.117Z,97456.72
2022-12-01T23:39:30.836Z,97460.34
2022-12-01T23:41:57.687Z,97450.34
2022-12-01T23:44:38.815Z,97457.22
2022-12-01T23:47:22.862Z,97456.16
2022-12-01T23:50:00.518Z,97452.00
2022-12-01T23:52:34.061Z,97444.03
2022-12-01T23:55:01.258Z,97446.59
2022-12-01T23:57:27.889Z,97442.22
2022-12-01T23:59:58.918Z,97441.09
